Time;durP1;ratioP1;P1;durP2;ratioP2;P2;SDS_P1;SDS_P2;PMS_P1;PMS_P2;Temp;Humidity;BMP_temperature;BMP_pressure;BME280_temperature;BME280_humidity;BME280_pressure;Samples;Min_cycle;Max_cycle;Signal;HPM_P1;HPM_P2
2022/05/05 00:02:03;;;;;;;13.10;4.88;;;5.40;99.90;;;;;;5107254;28;20062;-66
2022/05/05 00:04:29;;;;;;;11.32;4.57;;;5.50;99.90;;;;;;5097882;28;20113;-66
2022/05/05 00:06:54;;;;;;;10.60;4.60;;;5.50;99.90;;;;;;5114071;27;20047;-66
2022/05/05 00:09:20;;;;;;;9.18;4.05;;;5.50;99.90;;;;;;5091766;28;20487;-66
2022/05/05 00:14:33;;;;;;;10.90;5.13;;;5.50;99.90;;;;;;5113011;27;20047;-66
2022/05/05 00:17:06;;;;;;;14.45;5.78;;;5.40;99.90;;;;;;5127636;27;20042;-66
2022/05/05 00:19:34;;;;;;;14.85;5.63;;;5.50;99.90;;;;;;5125351;27;20039;-66
2022/05/05 00:22:00;;;;;;;14.35;5.70;;;5.50;99.90;;;;;;5111992;27;20754;-67
2022/05/05 00:24:26;;;;;;;9.63;5.30;;;5.50;99.90;;;;;;5121345;27;20664;-66
2022/05/05 00:26:52;;;;;;;9.77;5.13;;;5.50;99.90;;;;;;5111978;27;20047;-66
2022/05/05 00:29:18;;;;;;;21.10;6.53;;;5.60;99.90;;;;;;5124152;27;20035;-67
2022/05/05 00:31:45;;;;;;;12.10;5.43;;;5.60;99.90;;;;;;5132533;27;20124;-67
2022/05/05 00:34:11;;;;;;;13.45;5.40;;;5.60;99.90;;;;;;5128389;27;20043;-68
2022/05/05 00:36:37;;;;;;;17.20;5.50;;;5.60;99.90;;;;;;5129627;27;20039;-68
2022/05/05 00:39:03;;;;;;;11.48;5.82;;;5.60;99.90;;;;;;5131126;27;20118;-66
2022/05/05 00:41:37;;;;;;;14.27;5.68;;;5.60;99.90;;;;;;5116515;27;20047;-67
2022/05/05 00:44:04;;;;;;;14.85;5.35;;;5.70;99.90;;;;;;5110907;27;20075;-67
2022/05/05 00:46:31;;;;;;;11.63;5.30;;;5.60;99.90;;;;;;5127469;27;20582;-66
2022/05/05 00:48:57;;;;;;;11.15;5.18;;;5.70;99.90;;;;;;5130638;27;20415;-67
2022/05/05 00:51:23;;;;;;;10.70;4.75;;;5.70;99.90;;;;;;5111879;28;20356;-67
2022/05/05 00:53:49;;;;;;;12.57;4.88;;;5.70;99.90;;;;;;5125691;27;20043;-67
2022/05/05 00:56:16;;;;;;;17.02;5.25;;;5.70;99.90;;;;;;5126380;27;20043;-67
2022/05/05 00:58:44;;;;;;;10.63;5.20;;;5.70;99.90;;;;;;5126836;27;20040;-67
2022/05/05 01:01:12;;;;;;;9.20;4.55;;;5.70;99.90;;;;;;5112510;27;20040;-67
2022/05/05 01:03:38;;;;;;;14.18;5.13;;;5.80;99.90;;;;;;5114074;27;20062;-67
2022/05/05 01:06:05;;;;;;;10.18;4.68;;;5.80;99.90;;;;;;5116172;27;20397;-67
2022/05/05 01:08:33;;;;;;;12.38;4.72;;;5.80;99.90;;;;;;5131004;27;20061;-68
2022/05/05 01:11:02;;;;;;;9.50;4.28;;;5.80;99.90;;;;;;5120815;27;20031;-67
2022/05/05 01:13:31;;;;;;;12.05;4.80;;;5.80;99.90;;;;;;5111317;27;20050;-66
2022/05/05 01:16:01;;;;;;;9.02;4.75;;;5.90;99.90;;;;;;5119767;27;20051;-66
2022/05/05 01:18:26;;;;;;;12.68;4.95;;;5.90;99.90;;;;;;5129437;27;20079;-66
2022/05/05 01:20:54;;;;;;;9.57;4.55;;;5.90;99.90;;;;;;5121439;27;20715;-66
2022/05/05 01:23:20;;;;;;;10.35;4.63;;;5.90;99.90;;;;;;5113855;27;20036;-66
2022/05/05 01:28:32;;;;;;;10.70;4.70;;;6.00;99.90;;;;;;5109957;27;20140;-67
2022/05/05 01:30:59;;;;;;;11.73;5.13;;;6.00;99.90;;;;;;5112074;27;20051;-66
2022/05/05 01:33:27;;;;;;;11.82;4.88;;;6.00;99.90;;;;;;5129662;27;20046;-66
2022/05/05 01:35:55;;;;;;;9.90;4.57;;;6.00;99.90;;;;;;5129212;27;20047;-66
2022/05/05 01:38:22;;;;;;;13.57;5.50;;;6.10;99.90;;;;;;5118534;27;20035;-67
2022/05/05 01:40:48;;;;;;;9.80;4.82;;;6.10;99.90;;;;;;5111476;27;20035;-66
2022/05/05 01:43:21;;;;;;;13.13;6.05;;;6.10;99.90;;;;;;5112584;27;20127;-66
2022/05/05 01:45:47;;;;;;;13.25;5.40;;;6.10;99.90;;;;;;5121518;27;20047;-67
2022/05/05 01:48:13;;;;;;;14.55;5.72;;;6.10;99.90;;;;;;5130430;27;20045;-66
2022/05/05 01:50:39;;;;;;;14.88;5.28;;;6.10;99.90;;;;;;5130518;27;20232;-67
2022/05/05 01:53:05;;;;;;;12.50;5.40;;;6.20;99.90;;;;;;5128791;27;20031;-67
2022/05/05 01:55:33;;;;;;;12.30;5.18;;;6.20;99.90;;;;;;5117669;27;20051;-66
2022/05/05 01:58:00;;;;;;;12.07;5.88;;;6.20;99.90;;;;;;5115917;27;20031;-67
2022/05/05 02:00:26;;;;;;;15.68;5.40;;;6.20;99.90;;;;;;5114214;27;20062;-67
2022/05/05 02:02:53;;;;;;;10.10;5.03;;;6.20;99.90;;;;;;5129125;27;20035;-67
2022/05/05 02:05:19;;;;;;;12.70;5.70;;;6.20;99.90;;;;;;5127327;27;20039;-67
2022/05/05 02:07:46;;;;;;;11.85;5.40;;;6.20;99.90;;;;;;5108673;28;20407;-67
2022/05/05 02:10:14;;;;;;;11.52;5.22;;;6.20;99.90;;;;;;5127204;27;20039;-67
2022/05/05 02:12:40;;;;;;;13.52;4.53;;;6.10;99.90;;;;;;5115031;27;20043;-67
2022/05/05 02:15:08;;;;;;;8.48;4.65;;;6.10;99.90;;;;;;5129846;27;20189;-66
2022/05/05 02:17:34;;;;;;;8.27;4.28;;;6.10;99.90;;;;;;5119119;27;20102;-67
2022/05/05 02:20:01;;;;;;;8.75;4.43;;;6.10;99.90;;;;;;5119410;27;20120;-67
2022/05/05 02:22:27;;;;;;;12.43;5.22;;;6.00;99.90;;;;;;5101699;27;20085;-67
2022/05/05 02:24:53;;;;;;;11.98;4.60;;;6.00;99.90;;;;;;5113010;27;20043;-67
2022/05/05 02:27:19;;;;;;;12.75;5.82;;;6.00;99.90;;;;;;5112740;27;20038;-67
2022/05/05 02:29:46;;;;;;;14.48;4.75;;;5.90;99.90;;;;;;5119181;27;20036;-67
2022/05/05 02:32:12;;;;;;;9.85;4.57;;;5.90;99.90;;;;;;5115286;27;20035;-67
2022/05/05 02:34:38;;;;;;;13.73;4.47;;;5.90;99.90;;;;;;5115375;27;20043;-65
2022/05/05 02:39:49;;;;;;;13.57;4.78;;;5.80;99.90;;;;;;5115313;27;20474;-65
2022/05/05 02:42:17;;;;;;;9.18;4.72;;;5.80;99.90;;;;;;5115438;27;20043;-65
2022/05/05 02:44:43;;;;;;;12.98;4.70;;;5.70;99.90;;;;;;5111209;27;20043;-65
2022/05/05 02:47:09;;;;;;;15.15;4.53;;;5.70;99.90;;;;;;5113321;27;20047;-66
2022/05/05 02:49:35;;;;;;;9.40;4.40;;;5.70;99.90;;;;;;5120761;27;20043;-66
2022/05/05 02:52:02;;;;;;;12.32;5.13;;;5.60;99.90;;;;;;5119590;27;20043;-66
2022/05/05 02:57:20;;;;;;;14.45;4.65;;;5.60;99.90;;;;;;5117718;27;20039;-66
2022/05/05 02:59:47;;;;;;;12.68;4.60;;;5.50;99.90;;;;;;5086244;28;20046;-68
2022/05/05 03:02:13;;;;;;;7.90;4.35;;;5.50;99.90;;;;;;5118825;27;20055;-66
2022/05/05 03:04:39;;;;;;;12.82;4.32;;;5.50;99.90;;;;;;5109018;28;20547;-66
2022/05/05 03:07:05;;;;;;;8.57;4.30;;;5.50;99.90;;;;;;5115308;27;20040;-66
2022/05/05 03:09:31;;;;;;;10.68;4.65;;;5.50;99.90;;;;;;5122427;27;20526;-66
2022/05/05 03:11:57;;;;;;;12.27;4.97;;;5.40;99.90;;;;;;5119258;27;20040;-66
2022/05/05 03:14:22;;;;;;;10.18;4.40;;;5.40;99.90;;;;;;5118075;27;20035;-66
2022/05/05 03:16:48;;;;;;;14.02;4.30;;;5.40;99.90;;;;;;5115677;28;20344;-66
2022/05/05 03:19:14;;;;;;;15.63;4.63;;;5.40;99.90;;;;;;5113736;28;20036;-67
2022/05/05 03:21:41;;;;;;;13.82;5.18;;;5.30;99.90;;;;;;5114112;28;20043;-66
2022/05/05 03:24:07;;;;;;;13.32;5.15;;;5.40;99.90;;;;;;5114604;28;20236;-66
2022/05/05 03:26:32;;;;;;;10.65;4.38;;;5.30;99.90;;;;;;5117320;27;20039;-66
2022/05/05 03:28:58;;;;;;;10.73;5.75;;;5.40;99.90;;;;;;5117289;27;20402;-67
2022/05/05 03:31:24;;;;;;;10.73;5.07;;;5.30;99.90;;;;;;5117327;28;20036;-66
2022/05/05 03:33:50;;;;;;;9.32;4.13;;;5.40;99.90;;;;;;5115943;28;20062;-66
2022/05/05 03:36:16;;;;;;;7.47;4.18;;;5.40;99.90;;;;;;5096688;28;20127;-66
2022/05/05 03:38:42;;;;;;;11.25;5.00;;;5.40;99.90;;;;;;5116779;28;20042;-66
2022/05/05 03:41:07;;;;;;;11.52;5.05;;;5.50;99.90;;;;;;5117837;27;20727;-66
2022/05/05 03:43:33;;;;;;;12.65;5.05;;;5.50;99.90;;;;;;5116396;28;20114;-66
2022/05/05 03:45:59;;;;;;;7.03;3.53;;;5.50;99.90;;;;;;5118006;27;20415;-66
2022/05/05 03:48:25;;;;;;;15.73;4.82;;;5.50;99.90;;;;;;5123530;27;20065;-66
2022/05/05 03:50:52;;;;;;;10.77;4.72;;;5.60;99.90;;;;;;5121728;27;20488;-66
2022/05/05 03:53:18;;;;;;;11.50;4.50;;;5.70;99.90;;;;;;5121587;27;20441;-66
2022/05/05 03:55:44;;;;;;;11.48;4.32;;;5.70;99.90;;;;;;5099671;27;20055;-66
2022/05/05 03:58:10;;;;;;;10.52;4.25;;;5.70;99.90;;;;;;5122625;27;20529;-66
2022/05/05 04:00:36;;;;;;;11.15;5.20;;;5.80;99.90;;;;;;5117365;27;20466;-67
2022/05/05 04:05:45;;;;;;;14.55;5.10;;;5.90;99.90;;;;;;5118743;27;20477;-66
2022/05/05 04:08:11;;;;;;;11.93;5.15;;;5.90;99.90;;;;;;5118286;27;20051;-65
2022/05/05 04:10:37;;;;;;;12.43;5.68;;;6.00;99.90;;;;;;5118569;27;20059;-66
2022/05/05 04:13:02;;;;;;;17.50;4.90;;;6.20;99.90;;;;;;5118455;27;20119;-66
2022/05/05 04:15:32;;;;;;;14.02;5.63;;;6.00;99.90;;;;;;5122774;27;20058;-67
2022/05/05 04:17:57;;;;;;;12.27;5.47;;;6.10;99.90;;;;;;5122004;27;20047;-66
2022/05/05 04:20:23;;;;;;;14.05;4.60;;;6.10;99.90;;;;;;5099745;28;20441;-67
2022/05/05 04:22:49;;;;;;;18.60;5.03;;;6.10;99.90;;;;;;5115988;27;20711;-67
2022/05/05 04:25:16;;;;;;;15.00;4.78;;;6.20;99.90;;;;;;5103829;27;20039;-66
2022/05/05 04:27:43;;;;;;;13.13;5.25;;;6.20;99.90;;;;;;5114577;27;20114;-67
2022/05/05 04:30:09;;;;;;;11.27;4.50;;;6.30;99.90;;;;;;5109702;27;20122;-66
2022/05/05 04:32:35;;;;;;;20.00;5.43;;;6.30;99.90;;;;;;5118018;27;20047;-66
2022/05/05 04:35:02;;;;;;;16.13;5.10;;;6.30;99.90;;;;;;5120862;27;20150;-66
2022/05/05 04:37:28;;;;;;;13.63;5.47;;;6.30;99.90;;;;;;5100920;27;20126;-66
2022/05/05 04:39:54;;;;;;;10.45;4.95;;;6.40;99.90;;;;;;5118180;27;20039;-66
2022/05/05 04:42:20;;;;;;;12.38;5.10;;;6.40;99.90;;;;;;5104061;27;20039;-66
2022/05/05 04:44:45;;;;;;;14.75;5.28;;;6.50;99.90;;;;;;5121006;27;20111;-67
2022/05/05 04:47:11;;;;;;;13.48;5.25;;;6.50;99.90;;;;;;5108788;27;20442;-66
2022/05/05 04:49:37;;;;;;;10.98;4.47;;;6.50;99.90;;;;;;5116066;27;20052;-66
2022/05/05 04:52:04;;;;;;;17.13;4.82;;;6.50;99.90;;;;;;5122233;27;20035;-66
2022/05/05 04:54:29;;;;;;;14.23;5.13;;;6.60;99.90;;;;;;5117640;27;20062;-66
2022/05/05 04:56:55;;;;;;;10.63;4.65;;;6.70;99.90;;;;;;5118634;27;20400;-66
2022/05/05 04:59:21;;;;;;;9.45;4.25;;;6.70;99.90;;;;;;5120643;27;20051;-66
2022/05/05 05:01:47;;;;;;;14.80;4.57;;;6.70;99.90;;;;;;5119305;27;20104;-67
2022/05/05 05:04:13;;;;;;;11.82;4.78;;;6.80;99.90;;;;;;5120612;27;20051;-66
2022/05/05 05:06:39;;;;;;;12.98;4.68;;;6.80;99.90;;;;;;5119553;27;20445;-66
2022/05/05 05:09:05;;;;;;;12.25;4.85;;;6.90;99.90;;;;;;5124014;27;20448;-67
2022/05/05 05:11:30;;;;;;;13.30;5.00;;;6.90;99.90;;;;;;5120667;27;20494;-67
2022/05/05 05:13:56;;;;;;;10.73;4.20;;;7.00;99.90;;;;;;5118760;27;20047;-66
2022/05/05 05:16:22;;;;;;;11.95;5.10;;;7.10;99.90;;;;;;5106094;27;20559;-66
2022/05/05 05:18:50;;;;;;;11.75;4.65;;;7.10;99.90;;;;;;5113199;27;20049;-66
2022/05/05 05:21:15;;;;;;;9.32;4.63;;;7.20;99.90;;;;;;5121194;27;20070;-66
2022/05/05 05:23:41;;;;;;;12.23;4.03;;;7.30;99.90;;;;;;5120562;27;20070;-66
2022/05/05 05:26:07;;;;;;;16.70;4.68;;;7.30;99.90;;;;;;5121589;27;20044;-66
2022/05/05 05:28:33;;;;;;;10.50;4.63;;;7.40;99.90;;;;;;5123183;27;20041;-67
2022/05/05 05:30:59;;;;;;;9.00;4.70;;;7.40;99.90;;;;;;5116753;27;20039;-70
2022/05/05 05:33:24;;;;;;;11.88;4.28;;;7.50;99.90;;;;;;5111342;27;20040;-67
2022/05/05 05:35:50;;;;;;;9.15;3.60;;;7.60;99.90;;;;;;5128093;27;20038;-67
2022/05/05 05:38:19;;;;;;;10.00;3.97;;;7.60;99.90;;;;;;5119151;27;20441;-67
2022/05/05 05:40:45;;;;;;;14.75;3.65;;;7.70;99.90;;;;;;5120923;27;20055;-67
2022/05/05 05:43:10;;;;;;;11.35;3.92;;;7.70;99.90;;;;;;5120236;27;20146;-67
2022/05/05 05:45:36;;;;;;;10.18;4.05;;;7.80;99.90;;;;;;5101850;27;20509;-67
2022/05/05 05:48:04;;;;;;;10.57;3.40;;;7.90;99.90;;;;;;5117332;27;20036;-68
2022/05/05 05:50:30;;;;;;;7.97;3.17;;;8.00;99.90;;;;;;5106486;27;20047;-67
2022/05/05 05:52:57;;;;;;;8.45;3.25;;;8.10;99.90;;;;;;5114850;27;20053;-68
2022/05/05 05:55:23;;;;;;;12.98;3.85;;;8.10;99.90;;;;;;5123397;27;20411;-66
2022/05/05 05:57:49;;;;;;;9.73;3.53;;;8.20;99.90;;;;;;5123018;27;20039;-67
2022/05/05 06:00:14;;;;;;;13.57;4.00;;;8.30;99.90;;;;;;5122951;27;20545;-67
2022/05/05 06:05:26;;;;;;;11.52;3.78;;;8.50;99.90;;;;;;5114728;27;20120;-66
2022/05/05 06:07:56;;;;;;;9.45;3.92;;;8.60;99.90;;;;;;5115522;27;20041;-67
2022/05/05 06:10:21;;;;;;;9.93;3.55;;;8.70;99.90;;;;;;5116776;27;20404;-67
2022/05/05 06:12:47;;;;;;;14.13;3.78;;;8.80;99.90;;;;;;5117801;27;20042;-66
2022/05/05 06:15:13;;;;;;;11.88;4.22;;;8.80;99.90;;;;;;5116938;27;20043;-67
2022/05/05 06:17:39;;;;;;;15.57;4.10;;;8.90;99.90;;;;;;5099346;27;20027;-66
2022/05/05 06:20:05;;;;;;;12.48;4.15;;;9.00;99.90;;;;;;5115746;27;20043;-66
2022/05/05 06:22:31;;;;;;;12.60;4.28;;;9.10;99.90;;;;;;5114033;27;20039;-66
2022/05/05 06:24:57;;;;;;;10.63;4.07;;;9.20;99.90;;;;;;5118612;27;20050;-66
2022/05/05 06:27:22;;;;;;;10.15;4.00;;;9.30;99.90;;;;;;5114609;27;20039;-67
2022/05/05 06:29:48;;;;;;;11.52;3.97;;;9.30;99.90;;;;;;5116966;27;20070;-66
2022/05/05 06:32:17;;;;;;;11.77;3.45;;;9.40;99.90;;;;;;5116912;27;20515;-66
2022/05/05 06:34:42;;;;;;;11.00;2.85;;;9.50;99.90;;;;;;5116113;27;20165;-66
2022/05/05 06:37:08;;;;;;;10.93;4.10;;;9.50;99.90;;;;;;5120198;27;20122;-66
2022/05/05 06:39:34;;;;;;;9.20;3.50;;;9.60;99.90;;;;;;5124291;27;20031;-66
2022/05/05 06:42:01;;;;;;;11.77;3.67;;;9.70;99.90;;;;;;5115871;27;20451;-66
2022/05/05 06:44:27;;;;;;;8.05;3.33;;;9.80;99.90;;;;;;5118074;27;20395;-66
2022/05/05 06:46:52;;;;;;;14.43;4.20;;;9.90;99.90;;;;;;5120451;27;20058;-66
2022/05/05 06:49:18;;;;;;;7.95;4.03;;;10.00;99.90;;;;;;5112027;27;20046;-66
2022/05/05 06:51:45;;;;;;;10.35;2.97;;;10.10;99.90;;;;;;5118459;27;20038;-66
2022/05/05 06:54:10;;;;;;;7.55;3.72;;;10.30;99.90;;;;;;5119636;27;20396;-66
2022/05/05 06:56:36;;;;;;;9.50;4.13;;;10.30;99.90;;;;;;5110441;27;20039;-66
2022/05/05 06:59:02;;;;;;;9.63;3.58;;;10.40;99.90;;;;;;5096127;27;20559;-67
2022/05/05 07:06:56;;;;;;;15.93;4.32;;;10.80;99.90;;;;;;5112763;27;20081;-67
2022/05/05 07:12:06;;;;;;;18.00;6.72;;;11.30;99.90;;;;;;5120019;27;20047;-67
2022/05/05 07:14:33;;;;;;;12.45;5.50;;;11.00;99.90;;;;;;5120378;27;20043;-67
2022/05/05 07:16:59;;;;;;;13.05;6.13;;;11.10;99.90;;;;;;5123413;27;20036;-67
2022/05/05 07:19:24;;;;;;;13.60;6.80;;;11.20;99.90;;;;;;5109092;28;20046;-67
2022/05/05 07:21:50;;;;;;;13.40;6.28;;;11.30;99.90;;;;;;5113806;28;20575;-67
2022/05/05 07:24:16;;;;;;;16.45;6.95;;;11.40;99.90;;;;;;5123319;27;20040;-66
2022/05/05 07:26:41;;;;;;;16.08;6.43;;;11.40;99.90;;;;;;5110597;27;20415;-66
2022/05/05 07:29:07;;;;;;;14.65;6.15;;;11.50;99.90;;;;;;5100700;28;20515;-66
2022/05/05 07:31:32;;;;;;;15.00;6.10;;;11.60;99.90;;;;;;5114504;28;20504;-66
2022/05/05 07:33:58;;;;;;;13.23;5.63;;;11.70;99.90;;;;;;5114167;28;20052;-66
2022/05/05 07:36:24;;;;;;;10.77;5.03;;;11.80;99.90;;;;;;5118451;28;20035;-67
2022/05/05 07:38:50;;;;;;;10.80;5.20;;;11.90;99.90;;;;;;5117026;28;20826;-67
2022/05/05 07:41:15;;;;;;;12.07;5.85;;;12.00;99.90;;;;;;5111648;28;20642;-66
2022/05/05 07:43:41;;;;;;;14.50;5.45;;;12.10;99.90;;;;;;5112760;27;20507;-68
2022/05/05 07:46:07;;;;;;;16.30;5.43;;;12.10;99.90;;;;;;5112203;28;20425;-67
2022/05/05 07:48:33;;;;;;;15.88;5.82;;;12.20;99.90;;;;;;5116687;27;20047;-67
2022/05/05 07:50:59;;;;;;;34.63;7.72;;;12.40;99.90;;;;;;5121952;27;20043;-67
2022/05/05 07:53:24;;;;;;;16.25;4.97;;;12.50;99.90;;;;;;5100614;28;21863;-66
2022/05/05 07:55:50;;;;;;;12.32;5.07;;;12.60;99.90;;;;;;5104104;27;20799;-66
2022/05/05 07:58:16;;;;;;;9.40;5.30;;;12.70;99.90;;;;;;5116674;28;20455;-66
2022/05/05 08:00:42;;;;;;;13.20;4.93;;;12.90;99.90;;;;;;5111169;27;20462;-66
2022/05/05 08:03:08;;;;;;;11.63;5.45;;;13.00;99.90;;;;;;5105970;28;20035;-68
2022/05/05 08:05:33;;;;;;;12.70;4.68;;;13.10;99.90;;;;;;5107870;28;20044;-67
2022/05/05 08:07:59;;;;;;;12.10;4.10;;;13.20;99.90;;;;;;5103168;28;20050;-66
2022/05/05 08:10:28;;;;;;;11.82;5.43;;;13.30;99.90;;;;;;5108295;28;20618;-67
2022/05/05 08:12:54;;;;;;;12.10;4.32;;;13.30;99.90;;;;;;5100131;28;20035;-67
2022/05/05 08:15:20;;;;;;;10.90;4.50;;;13.40;99.90;;;;;;5116269;27;20045;-66
2022/05/05 08:17:47;;;;;;;12.65;5.07;;;13.50;99.90;;;;;;5115676;28;20049;-67
2022/05/05 08:20:15;;;;;;;18.42;5.43;;;13.70;99.90;;;;;;5115613;28;20076;-67
2022/05/05 08:22:41;;;;;;;23.77;6.20;;;13.80;99.90;;;;;;5097893;28;20396;-66
2022/05/05 08:30:37;;;;;;;16.88;4.78;;;14.00;99.90;;;;;;5103318;28;20058;-67
2022/05/05 08:33:03;;;;;;;15.02;5.70;;;14.20;99.90;;;;;;5115611;27;20510;-67
2022/05/05 08:35:29;;;;;;;17.35;6.03;;;14.40;99.90;;;;;;5123981;27;20090;-67
2022/05/05 08:37:55;;;;;;;20.25;5.95;;;14.70;99.90;;;;;;5120917;27;20047;-67
2022/05/05 08:40:26;;;;;;;11.65;5.43;;;15.10;99.90;;;;;;5114726;27;20122;-66
2022/05/05 08:42:53;;;;;;;15.93;6.60;;;15.30;99.90;;;;;;5116051;27;20032;-66
2022/05/05 08:45:19;;;;;;;15.38;5.40;;;15.40;99.90;;;;;;5113885;27;20051;-67
2022/05/05 08:47:47;;;;;;;16.48;5.28;;;15.50;99.90;;;;;;5111183;27;20540;-66
2022/05/05 08:50:13;;;;;;;13.23;5.28;;;15.60;99.90;;;;;;5118894;27;20471;-66
2022/05/05 08:52:48;;;;;;;15.90;4.95;;;15.70;99.90;;;;;;5118838;27;20099;-66
2022/05/05 08:55:16;;;;;;;14.88;5.05;;;15.70;99.90;;;;;;5102906;27;20641;-66
2022/05/05 08:57:42;;;;;;;13.27;5.20;;;15.80;99.90;;;;;;5119126;27;20511;-66
2022/05/05 09:00:10;;;;;;;15.73;6.25;;;15.90;99.90;;;;;;5122378;27;20060;-66
2022/05/05 09:02:36;;;;;;;12.07;5.50;;;16.00;99.90;;;;;;5112062;27;20436;-66
2022/05/05 09:05:03;;;;;;;11.88;5.78;;;16.20;99.90;;;;;;5121317;27;20047;-67
2022/05/05 09:07:48;;;;;;;11.20;5.60;;;16.50;99.90;;;;;;5119990;27;20122;-66
2022/05/05 09:10:16;;;;;;;13.40;5.10;;;16.70;99.90;;;;;;5125518;27;20385;-67
2022/05/05 09:12:42;;;;;;;14.45;4.90;;;16.90;99.90;;;;;;5103656;27;20146;-66
2022/05/05 09:15:11;;;;;;;11.27;5.05;;;17.10;99.90;;;;;;5115311;27;20043;-67
2022/05/05 09:17:37;;;;;;;11.07;4.78;;;17.30;99.90;;;;;;5120723;27;20043;-66
2022/05/05 09:20:06;;;;;;;13.57;6.07;;;17.40;99.90;;;;;;5122646;27;20035;-66
2022/05/05 09:22:32;;;;;;;10.52;4.97;;;17.70;99.90;;;;;;5123515;27;20081;-66
2022/05/05 09:24:58;;;;;;;10.68;5.40;;;17.90;99.90;;;;;;5116452;27;20562;-66
2022/05/05 09:27:29;;;;;;;11.02;5.50;;;18.10;99.90;;;;;;5115373;27;20046;-67
2022/05/05 09:30:09;;;;;;;16.10;5.63;;;18.20;99.90;;;;;;5118047;27;20050;-67
2022/05/05 09:32:43;;;;;;;16.02;5.82;;;18.30;99.90;;;;;;5096304;27;20549;-66
2022/05/05 09:35:16;;;;;;;12.73;6.55;;;18.30;99.90;;;;;;5119475;27;20039;-67
2022/05/05 09:37:44;;;;;;;13.30;5.97;;;18.40;99.90;;;;;;5122438;27;20414;-67
2022/05/05 09:40:13;;;;;;;14.52;6.28;;;18.50;99.90;;;;;;5107264;27;20566;-66
2022/05/05 09:42:40;;;;;;;19.80;6.88;;;18.60;99.90;;;;;;5105998;27;20431;-67
2022/05/05 09:45:32;;;;;;;13.02;6.25;;;18.80;99.90;;;;;;5110663;27;20051;-67
2022/05/05 09:48:28;;;;;;;14.43;6.68;;;18.80;99.90;;;;;;5094349;27;20061;-67
2022/05/05 09:51:10;;;;;;;14.10;6.72;;;18.90;99.90;;;;;;5109913;27;20084;-67
2022/05/05 09:59:50;;;;;;;16.92;6.53;;;19.10;99.90;;;;;;5119453;27;20043;-67
2022/05/05 10:05:12;;;;;;;11.52;5.95;;;18.90;99.90;;;;;;5113727;27;20086;-67
2022/05/05 10:07:43;;;;;;;13.75;6.35;;;18.90;99.90;;;;;;5115180;27;20122;-67
2022/05/05 10:10:10;;;;;;;11.30;6.80;;;18.70;99.90;;;;;;5104215;27;20051;-67
2022/05/05 10:12:37;;;;;;;11.63;5.95;;;18.70;99.90;;;;;;5117594;27;20062;-68
2022/05/05 10:15:04;;;;;;;12.27;6.45;;;18.70;99.90;;;;;;5117122;27;20047;-67
2022/05/05 10:17:33;;;;;;;14.13;6.57;;;18.80;99.90;;;;;;5117019;27;20361;-67
2022/05/05 10:19:59;;;;;;;11.10;6.20;;;18.90;99.90;;;;;;5114466;27;20406;-67
2022/05/05 10:22:37;;;;;;;14.43;7.32;;;19.00;99.90;;;;;;5119241;27;20498;-67
2022/05/05 10:25:11;;;;;;;15.55;7.40;;;19.00;99.90;;;;;;5111239;27;20062;-67
2022/05/05 10:27:43;;;;;;;11.98;7.35;;;18.90;99.90;;;;;;5086124;27;20426;-67
2022/05/05 10:30:16;;;;;;;14.65;6.72;;;18.80;99.90;;;;;;5112869;27;20035;-67
2022/05/05 10:32:42;;;;;;;15.68;7.10;;;18.80;99.90;;;;;;5114889;27;20159;-69
2022/05/05 10:35:21;;;;;;;14.00;7.90;;;18.80;99.90;;;;;;5113578;27;20637;-67
2022/05/05 10:37:47;;;;;;;14.35;7.53;;;19.00;99.90;;;;;;5115916;27;20135;-67
2022/05/05 10:40:13;;;;;;;14.80;6.70;;;19.20;99.90;;;;;;5116763;27;20614;-67
2022/05/05 10:42:45;;;;;;;14.30;7.15;;;19.20;99.90;;;;;;5118655;27;20027;-67
2022/05/05 10:45:15;;;;;;;11.40;7.15;;;19.40;99.90;;;;;;5121567;27;20494;-67
2022/05/05 10:48:07;;;;;;;12.65;7.50;;;19.50;99.90;;;;;;5116655;27;20044;-67
2022/05/05 10:53:28;;;;;;;12.25;7.10;;;19.60;99.90;;;;;;5122579;27;20086;-67
2022/05/05 10:55:55;;;;;;;11.60;7.15;;;19.70;99.90;;;;;;5118117;27;20457;-67
2022/05/05 10:58:56;;;;;;;12.15;6.70;;;19.60;99.90;;;;;;5101372;27;20036;-67
2022/05/05 11:01:22;;;;;;;11.52;7.45;;;19.70;99.90;;;;;;5121308;27;20042;-67
2022/05/05 11:04:15;;;;;;;12.75;6.88;;;19.70;99.90;;;;;;5117105;27;20260;-67
2022/05/05 11:06:42;;;;;;;12.30;6.28;;;19.70;99.90;;;;;;5104138;27;20032;-67
2022/05/05 11:09:08;;;;;;;12.02;6.40;;;19.70;99.90;;;;;;5123884;27;20094;-68
2022/05/05 11:11:40;;;;;;;12.85;6.63;;;19.90;99.90;;;;;;5116055;27;20425;-67
2022/05/05 11:23:22;;;;;;;11.40;6.57;;;20.00;99.90;;;;;;5124583;28;20436;-67
2022/05/05 11:25:49;;;;;;;11.68;7.25;;;20.00;98.70;;;;;;5122101;28;20054;-67
2022/05/05 11:28:14;;;;;;;11.90;6.38;;;20.10;99.60;;;;;;5120516;28;20047;-68
2022/05/05 11:30:44;;;;;;;15.68;6.40;;;20.20;98.80;;;;;;5109253;27;20043;-67
2022/05/05 11:33:10;;;;;;;10.57;6.50;;;20.40;99.50;;;;;;5111654;27;20071;-67
2022/05/05 11:35:36;;;;;;;14.93;6.90;;;20.70;99.30;;;;;;5113091;28;20556;-67
2022/05/05 11:38:02;;;;;;;11.90;6.05;;;20.90;99.00;;;;;;5097859;28;20051;-67
2022/05/05 11:40:34;;;;;;;14.75;6.60;;;21.10;99.00;;;;;;5115823;28;20076;-68
2022/05/05 11:45:52;;;;;;;14.65;6.30;;;20.80;97.40;;;;;;5116451;28;20050;-67
2022/05/05 11:48:17;;;;;;;12.15;6.50;;;20.90;98.20;;;;;;5114859;27;20043;-67
2022/05/05 11:50:47;;;;;;;11.85;6.47;;;21.00;97.80;;;;;;5112276;28;20065;-67
2022/05/05 11:53:22;;;;;;;13.38;7.15;;;21.20;98.20;;;;;;5113749;27;20624;-66
2022/05/05 11:55:52;;;;;;;12.00;6.10;;;21.10;96.10;;;;;;5109410;28;20047;-67
2022/05/05 12:04:00;;;;;;;15.18;6.80;;;20.60;94.50;;;;;;5111938;28;20050;-66
2022/05/05 12:06:26;;;;;;;17.52;7.03;;;20.40;96.00;;;;;;5116988;27;20061;-67
2022/05/05 12:08:53;;;;;;;12.65;6.43;;;20.40;96.20;;;;;;5120528;27;20066;-66
2022/05/05 12:11:21;;;;;;;14.40;6.97;;;20.40;96.10;;;;;;5122437;27;20491;-66
2022/05/05 12:13:49;;;;;;;12.52;6.80;;;20.30;96.50;;;;;;5113190;27;20822;-67
2022/05/05 12:16:18;;;;;;;13.57;7.35;;;20.20;95.50;;;;;;5121967;27;20096;-67
2022/05/05 12:18:51;;;;;;;11.95;7.50;;;20.10;96.50;;;;;;5099370;27;20181;-66
2022/05/05 12:21:21;;;;;;;13.63;6.43;;;20.00;96.20;;;;;;5113581;27;20043;-66
2022/05/05 12:24:02;;;;;;;15.55;6.30;;;20.10;95.90;;;;;;5121173;27;20043;-67
2022/05/05 12:26:28;;;;;;;;;;;20.30;96.80;;;;;;5115339;27;20877;-66
2022/05/05 12:28:54;;;;;;;13.55;6.80;;;20.60;96.20;;;;;;5113153;27;19979;-67
2022/05/05 12:31:24;;;;;;;14.95;7.25;;;20.90;97.30;;;;;;5115917;27;20047;-67
2022/05/05 12:33:50;;;;;;;15.73;7.97;;;21.10;96.40;;;;;;5117326;27;20035;-66
2022/05/05 12:36:17;;;;;;;13.02;7.47;;;21.30;96.40;;;;;;5112604;27;20046;-66
2022/05/05 12:38:43;;;;;;;13.77;7.25;;;21.30;96.30;;;;;;5113912;27;20044;-67
2022/05/05 12:41:09;;;;;;;13.00;7.55;;;21.20;96.20;;;;;;5111579;27;20045;-67
2022/05/05 12:43:35;;;;;;;15.02;7.40;;;21.20;96.70;;;;;;5115526;27;20149;-67
2022/05/05 12:46:04;;;;;;;15.23;8.02;;;21.00;95.30;;;;;;5118369;27;20060;-68
2022/05/05 12:48:31;;;;;;;14.02;7.97;;;20.90;95.20;;;;;;5117594;27;20119;-67
2022/05/05 12:50:57;;;;;;;19.13;7.68;;;20.80;95.20;;;;;;5111486;27;20044;-67
2022/05/05 13:01:49;;;;;;;14.30;6.25;;;20.80;96.00;;;;;;5112505;27;20101;-67
2022/05/05 13:04:17;;;;;;;14.00;8.52;;;21.20;96.40;;;;;;5111158;27;20095;-67
2022/05/05 13:06:46;;;;;;;12.50;6.75;;;21.30;94.90;;;;;;5114202;27;21771;-67
2022/05/05 13:09:12;;;;;;;11.77;6.60;;;21.30;95.10;;;;;;5112901;27;20057;-67
2022/05/05 13:11:40;;;;;;;12.63;6.95;;;21.30;95.50;;;;;;5113508;27;20074;-67
2022/05/05 13:14:06;;;;;;;12.32;6.00;;;21.20;94.40;;;;;;5096740;27;20047;-66
2022/05/05 13:16:32;;;;;;;12.10;6.25;;;21.20;94.90;;;;;;5119608;27;20050;-67
2022/05/05 13:18:59;;;;;;;11.15;7.13;;;21.20;94.90;;;;;;5113469;27;20039;-67
2022/05/05 13:21:26;;;;;;;10.40;6.47;;;21.00;94.50;;;;;;5116991;27;20050;-67
2022/05/05 13:23:52;;;;;;;11.85;6.93;;;20.90;94.60;;;;;;5115143;27;20043;-67
2022/05/05 13:26:18;;;;;;;10.65;7.13;;;20.70;93.60;;;;;;5109809;27;20047;-67
2022/05/05 13:28:44;;;;;;;11.38;6.50;;;20.60;94.10;;;;;;5114914;27;20115;-67
2022/05/05 13:31:10;;;;;;;11.23;6.10;;;20.60;94.00;;;;;;5113432;27;20047;-67
2022/05/05 13:33:35;;;;;;;13.50;7.47;;;20.50;94.70;;;;;;5096620;27;20042;-66
2022/05/05 13:36:01;;;;;;;12.43;5.93;;;20.50;93.70;;;;;;5115972;27;20073;-67
2022/05/05 13:38:27;;;;;;;9.73;6.07;;;20.40;93.70;;;;;;5116547;27;20496;-67
2022/05/05 13:40:55;;;;;;;12.10;6.30;;;20.30;94.20;;;;;;5116670;27;20104;-68
2022/05/05 13:43:21;;;;;;;12.27;6.45;;;20.40;94.50;;;;;;5099491;27;20177;-66
2022/05/05 13:45:47;;;;;;;11.43;5.93;;;20.30;94.60;;;;;;5113730;27;20040;-67
2022/05/05 13:48:13;;;;;;;12.93;6.82;;;20.40;94.20;;;;;;5113698;27;20066;-67
2022/05/05 13:50:39;;;;;;;12.48;6.25;;;20.40;95.00;;;;;;5113073;27;20555;-67
2022/05/05 13:53:05;;;;;;;12.43;6.60;;;20.30;94.80;;;;;;5100215;27;20436;-68